createdAt,value
2023-04-05T00:00:54.861Z,87.66
2023-04-05T00:04:06.207Z,87.32
2023-04-05T00:05:39.563Z,87.59
2023-04-05T00:07:12.821Z,87.54
2023-04-05T00:08:50.350Z,87.66
2023-04-05T00:10:22.468Z,87.79
2023-04-05T00:11:54.687Z,88.08
2023-04-05T00:13:27.236Z,88.23
2023-04-05T00:14:59.432Z,88.05
2023-04-05T00:16:31.645Z,88.05
2023-04-05T00:18:06.734Z,88.07
2023-04-05T00:19:39.734Z,87.83
2023-04-05T00:21:12.169Z,87.39
2023-04-05T00:22:45.076Z,87.64
2023-04-05T00:24:17.240Z,87.83
2023-04-05T00:25:49.297Z,88.10
2023-04-05T00:27:21.615Z,88.28
2023-04-05T00:28:53.819Z,88.22
2023-04-05T00:30:25.927Z,88.15
2023-04-05T00:31:58.083Z,88.08
2023-04-05T00:33:30.158Z,88.05
2023-04-05T00:35:02.271Z,88.16
2023-04-05T00:36:34.414Z,88.41
2023-04-05T00:38:06.502Z,88.01
2023-04-05T00:39:39.877Z,88.00
2023-04-05T00:41:12.956Z,87.90
2023-04-05T00:42:45.275Z,87.86
2023-04-05T00:44:18.107Z,87.64
2023-04-05T00:45:50.484Z,87.69
2023-04-05T00:47:22.729Z,87.61
2023-04-05T00:48:55.075Z,87.63
2023-04-05T00:50:31.302Z,87.86
2023-04-05T00:52:04.393Z,87.71
2023-04-05T00:53:36.680Z,87.70
2023-04-05T00:55:09.523Z,87.70
2023-04-05T00:56:42.035Z,87.66
2023-04-05T00:58:15.026Z,87.72
2023-04-05T00:59:47.075Z,88.08
2023-04-05T01:01:22.763Z,88.22
2023-04-05T01:03:02.282Z,88.26
2023-04-05T01:04:37.110Z,88.30
2023-04-05T01:06:18.351Z,88.32
2023-04-05T01:07:56.747Z,88.19
2023-04-05T01:09:46.215Z,88.16
2023-04-05T01:11:18.844Z,88.21
2023-04-05T01:12:51.374Z,88.34
2023-04-05T01:14:23.452Z,88.38
2023-04-05T01:15:55.887Z,88.46
2023-04-05T01:17:34.411Z,88.34
2023-04-05T01:19:06.774Z,88.30
2023-04-05T01:20:43.480Z,88.14
2023-04-05T01:22:38.408Z,87.82
2023-04-05T01:24:43.031Z,87.63
2023-04-05T01:26:18.196Z,87.47
2023-04-05T01:28:24.037Z,87.31
2023-04-05T01:30:08.121Z,87.67
2023-04-05T01:31:54.441Z,87.39
2023-04-05T01:33:36.313Z,87.35
2023-04-05T01:35:23.590Z,87.36
2023-04-05T01:36:58.644Z,87.07
2023-04-05T01:38:31.939Z,86.89
2023-04-05T01:40:05.316Z,87.11
2023-04-05T01:41:39.607Z,86.46
2023-04-05T01:43:18.228Z,86.24
2023-04-05T01:44:51.416Z,86.19
2023-04-05T01:46:23.572Z,86.26
2023-04-05T01:47:55.858Z,86.35
2023-04-05T01:49:27.950Z,86.13
2023-04-05T01:51:00.011Z,86.10
2023-04-05T01:52:32.121Z,86.17
2023-04-05T01:54:04.361Z,86.19
2023-04-05T01:55:36.600Z,85.97
2023-04-05T01:57:08.679Z,85.74
2023-04-05T01:58:41.018Z,85.82
2023-04-05T02:00:13.891Z,85.63
2023-04-05T02:01:46.273Z,85.39
2023-04-05T02:03:18.454Z,85.07
2023-04-05T02:04:50.742Z,85.14
2023-04-05T02:06:23.513Z,84.83
2023-04-05T02:07:55.754Z,84.84
2023-04-05T02:09:27.767Z,85.26
2023-04-05T02:10:59.832Z,85.19
2023-04-05T02:12:32.054Z,85.57
2023-04-05T02:14:04.615Z,85.25
2023-04-05T02:15:36.736Z,85.19
2023-04-05T02:17:08.799Z,85.24
2023-04-05T02:18:40.851Z,85.28
2023-04-05T02:20:14.911Z,85.54
2023-04-05T02:21:48.243Z,85.76
2023-04-05T02:23:21.304Z,85.97
2023-04-05T02:24:53.356Z,86.19
2023-04-05T02:26:25.450Z,86.39
2023-04-05T02:27:57.702Z,86.33
2023-04-05T02:29:29.820Z,86.55
2023-04-05T02:31:01.952Z,86.81
2023-04-05T02:32:34.366Z,87.05
2023-04-05T02:34:09.560Z,87.18
2023-04-05T02:35:41.774Z,87.40
2023-04-05T02:37:13.971Z,87.62
2023-04-05T02:38:46.073Z,87.48
2023-04-05T02:40:18.479Z,87.64
2023-04-05T02:41:50.696Z,87.48
2023-04-05T02:43:22.742Z,87.39
2023-04-05T02:44:54.830Z,87.14
2023-04-05T02:46:27.005Z,86.82
2023-04-05T02:47:59.156Z,86.81
2023-04-05T02:49:31.244Z,86.30
2023-04-05T02:51:03.358Z,86.52
2023-04-05T02:52:35.503Z,86.23
2023-04-05T02:54:07.590Z,85.75
2023-04-05T02:55:42.425Z,85.55
2023-04-05T02:57:14.489Z,85.24
2023-04-05T02:58:49.235Z,85.12
2023-04-05T03:00:22.719Z,85.01
2023-04-05T03:01:54.917Z,85.03
2023-04-05T03:03:27.022Z,85.07
2023-04-05T03:05:02.700Z,84.87
2023-04-05T03:06:34.792Z,85.15
2023-04-05T03:08:07.295Z,85.13
2023-04-05T03:09:40.282Z,85.18
2023-04-05T03:11:12.859Z,85.06
2023-04-05T03:12:46.576Z,85.00
2023-04-05T03:14:18.733Z,85.08
2023-04-05T03:15:54.976Z,84.80
2023-04-05T03:17:27.507Z,85.04
2023-04-05T03:19:00.458Z,85.19
2023-04-05T03:20:35.299Z,85.27
2023-04-05T03:22:08.041Z,85.62
2023-04-05T03:23:40.129Z,85.98
2023-04-05T03:25:12.286Z,86.16
2023-04-05T03:26:46.335Z,86.37
2023-04-05T03:28:18.828Z,86.62
2023-04-05T03:29:50.967Z,86.56
2023-04-05T03:31:23.175Z,86.42
2023-04-05T03:32:58.423Z,86.54
2023-04-05T03:34:30.540Z,86.77
2023-04-05T03:37:35.354Z,86.76
2023-04-05T03:39:07.866Z,87.13
2023-04-05T03:40:40.359Z,87.56
2023-04-05T03:42:15.452Z,87.67
2023-04-05T03:43:47.599Z,87.72
2023-04-05T03:45:23.920Z,87.56
2023-04-05T03:46:56.779Z,87.31
2023-04-05T03:48:28.907Z,86.72
2023-04-05T03:50:03.006Z,86.24
2023-04-05T03:51:35.310Z,85.93
2023-04-05T03:53:07.415Z,86.25
2023-04-05T03:54:41.298Z,86.38
2023-04-05T03:56:13.430Z,86.30
2023-04-05T03:57:45.727Z,85.92
2023-04-05T03:59:17.862Z,85.49
2023-04-05T04:00:50.865Z,85.30
2023-04-05T04:02:23.085Z,85.56
2023-04-05T04:03:55.231Z,85.77
2023-04-05T04:05:27.363Z,85.87
2023-04-05T04:06:59.534Z,86.18
2023-04-05T04:08:31.863Z,86.29
2023-04-05T04:10:07.318Z,86.49
2023-04-05T04:11:39.372Z,86.50
2023-04-05T04:13:11.497Z,86.88
2023-04-05T04:14:43.747Z,87.09
2023-04-05T04:16:16.479Z,86.84
2023-04-05T04:17:48.662Z,87.09
2023-04-05T04:19:20.955Z,87.03
2023-04-05T04:20:53.074Z,86.98
2023-04-05T04:22:33.688Z,86.81
2023-04-05T04:24:06.654Z,86.85
2023-04-05T04:25:38.994Z,86.75
2023-04-05T04:27:11.623Z,86.37
2023-04-05T04:28:44.245Z,86.01
2023-04-05T04:30:16.554Z,85.97
2023-04-05T04:31:48.845Z,85.65
2023-04-05T04:33:21.020Z,86.01
2023-04-05T04:34:54.917Z,86.02
2023-04-05T04:36:36.674Z,86.25
2023-04-05T04:38:09.152Z,85.83
2023-04-05T04:39:45.528Z,85.70
2023-04-05T04:41:20.582Z,85.72
2023-04-05T04:42:52.777Z,85.68
2023-04-05T04:44:31.609Z,85.54
2023-04-05T04:46:07.040Z,85.60
2023-04-05T04:47:39.144Z,85.54
2023-04-05T04:49:11.416Z,85.72
2023-04-05T04:50:47.093Z,85.90
2023-04-05T04:52:19.184Z,85.91
2023-04-05T04:53:51.389Z,85.85
2023-04-05T04:55:25.712Z,85.84
2023-04-05T04:56:58.199Z,85.70
2023-04-05T04:58:30.611Z,85.75
2023-04-05T05:00:02.941Z,85.25
2023-04-05T05:01:35.243Z,85.16
2023-04-05T05:03:08.810Z,84.32
2023-04-05T05:04:41.966Z,84.16
2023-04-05T05:06:17.906Z,84.22
2023-04-05T05:07:50.972Z,84.14
2023-04-05T05:09:24.044Z,84.50
2023-04-05T05:10:56.321Z,84.29
2023-04-05T05:12:28.499Z,84.44
2023-04-05T05:14:00.735Z,84.48
2023-04-05T05:15:32.899Z,84.88
2023-04-05T05:17:07.013Z,84.57
2023-04-05T05:18:42.068Z,84.34
2023-04-05T05:20:14.167Z,84.44
2023-04-05T05:21:47.421Z,84.38
2023-04-05T05:23:21.689Z,84.11
2023-04-05T05:24:54.329Z,84.05
2023-04-05T05:26:26.848Z,83.76
2023-04-05T05:27:59.040Z,83.45
2023-04-05T05:29:31.206Z,83.80
2023-04-05T05:31:04.539Z,84.39
2023-04-05T05:32:36.723Z,84.35
2023-04-05T05:34:08.876Z,85.11
2023-04-05T05:35:41.347Z,85.02
2023-04-05T05:37:13.627Z,84.76
2023-04-05T05:38:45.758Z,85.28
2023-04-05T05:40:17.924Z,85.58
2023-04-05T05:41:50.693Z,85.98
2023-04-05T05:43:22.754Z,86.04
2023-04-05T05:44:54.877Z,86.07
2023-04-05T05:46:27.206Z,86.14
2023-04-05T05:47:59.474Z,85.78
2023-04-05T05:49:31.890Z,86.10
2023-04-05T05:51:09.984Z,86.16
2023-04-05T05:52:42.139Z,86.25
2023-04-05T05:54:14.246Z,86.26
2023-04-05T05:55:47.074Z,86.25
2023-04-05T05:57:19.235Z,86.46
2023-04-05T05:58:51.454Z,86.75
2023-04-05T06:00:23.753Z,86.62
2023-04-05T06:01:56.019Z,86.41
2023-04-05T06:03:30.261Z,86.18
2023-04-05T06:05:05.413Z,86.07
2023-04-05T06:06:37.912Z,85.57
2023-04-05T06:08:10.173Z,85.20
2023-04-05T06:09:42.439Z,85.01
2023-04-05T06:11:18.727Z,85.23
2023-04-05T06:12:51.542Z,85.31
2023-04-05T06:15:56.559Z,85.22
2023-04-05T06:17:29.092Z,85.50
2023-04-05T06:19:01.993Z,85.14
2023-04-05T06:20:34.197Z,84.51
2023-04-05T06:22:06.357Z,84.66
2023-04-05T06:23:38.562Z,84.64
2023-04-05T06:25:12.825Z,84.34
2023-04-05T06:26:45.101Z,84.01
2023-04-05T06:28:17.262Z,83.67
2023-04-05T06:29:49.389Z,83.49
2023-04-05T06:31:27.701Z,82.37
2023-04-05T06:33:00.901Z,82.14
2023-04-05T06:34:33.096Z,82.54
2023-04-05T06:36:05.364Z,82.50
2023-04-05T06:37:37.524Z,82.19
2023-04-05T06:39:09.922Z,82.58
2023-04-05T06:40:42.310Z,82.36
2023-04-05T06:42:14.715Z,82.45
2023-04-05T06:43:46.815Z,82.75
2023-04-05T06:45:20.259Z,82.75
2023-04-05T06:46:52.380Z,82.63
2023-04-05T06:48:25.745Z,82.45
2023-04-05T06:49:57.859Z,82.46
2023-04-05T06:51:30.024Z,82.32
2023-04-05T06:53:03.532Z,81.44
2023-04-05T06:54:35.801Z,81.22
2023-04-05T06:56:08.542Z,81.09
2023-04-05T06:57:40.685Z,81.23
2023-04-05T06:59:12.882Z,80.76
2023-04-05T07:00:45.063Z,80.59
2023-04-05T07:02:17.297Z,79.33
2023-04-05T07:03:49.471Z,79.37
2023-04-05T07:05:21.591Z,79.33
2023-04-05T07:06:54.403Z,77.94
2023-04-05T07:08:27.962Z,77.82
2023-04-05T07:10:00.349Z,77.10
2023-04-05T07:11:33.380Z,77.94
2023-04-05T07:13:05.751Z,77.86
2023-04-05T07:14:38.600Z,77.16
2023-04-05T07:16:10.733Z,75.07
2023-04-05T07:17:43.015Z,74.55
2023-04-05T07:19:15.631Z,75.49
2023-04-05T07:20:49.884Z,75.72
2023-04-05T07:22:21.956Z,73.59
2023-04-05T07:23:59.448Z,72.05
2023-04-05T07:25:32.272Z,72.36
2023-04-05T07:27:04.723Z,72.33
2023-04-05T07:28:36.903Z,71.71
2023-04-05T07:30:09.608Z,72.41
2023-04-05T07:31:41.849Z,72.81
2023-04-05T07:33:14.259Z,74.28
2023-04-05T07:34:47.059Z,73.42
2023-04-05T07:36:19.340Z,73.31
2023-04-05T07:37:51.637Z,72.34
2023-04-05T07:39:23.801Z,72.51
2023-04-05T07:40:56.119Z,72.17
2023-04-05T07:42:28.675Z,71.12
2023-04-05T07:44:00.854Z,72.15
2023-04-05T07:45:32.950Z,73.11
2023-04-05T07:47:05.128Z,73.70
2023-04-05T07:48:40.532Z,73.67
2023-04-05T07:50:15.628Z,73.08
2023-04-05T07:51:48.609Z,73.47
2023-04-05T07:53:20.972Z,72.56
2023-04-05T07:54:53.130Z,73.33
2023-04-05T07:56:25.357Z,71.91
2023-04-05T07:57:58.855Z,69.36
2023-04-05T07:59:30.987Z,70.13
2023-04-05T08:01:04.425Z,70.60
2023-04-05T08:02:36.463Z,69.42
2023-04-05T08:04:08.910Z,69.79
2023-04-05T08:05:41.284Z,70.14
2023-04-05T08:07:13.604Z,69.80
2023-04-05T08:08:46.809Z,69.89
2023-04-05T08:10:18.981Z,68.47
2023-04-05T08:11:54.183Z,69.69
2023-04-05T08:13:26.549Z,69.26
2023-04-05T08:14:58.929Z,68.96
2023-04-05T08:16:31.245Z,69.34
2023-04-05T08:18:03.550Z,69.53
2023-04-05T08:19:35.738Z,69.63
2023-04-05T08:21:07.906Z,68.92
2023-04-05T08:22:39.960Z,68.67
2023-04-05T08:24:12.134Z,68.86
2023-04-05T08:25:44.983Z,67.88
2023-04-05T08:27:17.520Z,69.02
2023-04-05T08:28:49.628Z,68.82
2023-04-05T08:30:22.355Z,68.71
2023-04-05T08:31:58.220Z,68.36
2023-04-05T08:33:31.502Z,68.74
2023-04-05T08:35:03.744Z,68.32
2023-04-05T08:36:35.918Z,68.67
2023-04-05T08:38:08.599Z,67.89
2023-04-05T08:39:40.746Z,68.20
2023-04-05T08:41:19.336Z,68.21
2023-04-05T08:42:58.126Z,68.79
2023-04-05T08:44:31.765Z,69.72
2023-04-05T08:46:04.462Z,69.12
2023-04-05T08:47:39.482Z,67.99
2023-04-05T08:49:12.030Z,68.12
2023-04-05T08:50:51.291Z,68.83
2023-04-05T08:52:23.643Z,70.24
2023-04-05T08:53:56.567Z,69.43
2023-04-05T08:55:29.301Z,69.26
2023-04-05T08:57:04.445Z,69.74
2023-04-05T08:58:38.306Z,69.68
2023-04-05T09:00:10.938Z,69.84
2023-04-05T09:01:44.406Z,69.08
2023-04-05T09:03:17.411Z,68.02
2023-04-05T09:04:50.125Z,67.82
2023-04-05T09:06:22.729Z,67.37
2023-04-05T09:07:56.053Z,67.13
2023-04-05T09:09:31.342Z,66.30
2023-04-05T09:11:03.572Z,67.46
2023-04-05T09:12:36.465Z,66.97
2023-04-05T09:14:09.181Z,66.74
2023-04-05T09:15:41.968Z,67.35
2023-04-05T09:17:14.401Z,67.45
2023-04-05T09:18:46.623Z,67.49
2023-04-05T09:20:18.944Z,67.87
2023-04-05T09:22:06.628Z,67.94
2023-04-05T09:23:38.813Z,70.37
2023-04-05T09:25:11.036Z,68.45
2023-04-05T09:28:16.912Z,70.22
2023-04-05T09:29:50.500Z,68.74
2023-04-05T09:31:36.957Z,68.44
2023-04-05T09:33:10.812Z,69.69
2023-04-05T09:34:44.289Z,70.95
2023-04-05T09:36:18.282Z,69.61
2023-04-05T09:37:53.804Z,68.94
2023-04-05T09:39:32.977Z,68.81
2023-04-05T09:41:09.893Z,68.89
2023-04-05T09:42:46.474Z,68.39
2023-04-05T09:44:18.665Z,65.30
2023-04-05T09:45:50.888Z,65.97
2023-04-05T09:47:31.679Z,66.43
2023-04-05T09:49:04.448Z,65.82
2023-04-05T09:50:37.056Z,64.62
2023-04-05T09:52:25.969Z,66.34
2023-04-05T09:54:04.276Z,66.30
2023-04-05T09:55:37.353Z,63.47
2023-04-05T09:57:10.973Z,63.29
2023-04-05T09:58:43.080Z,64.67
2023-04-05T10:00:19.952Z,64.44
2023-04-05T10:01:52.418Z,63.83
2023-04-05T10:03:27.929Z,63.63
2023-04-05T10:05:12.817Z,62.31
2023-04-05T10:06:44.903Z,63.07
2023-04-05T10:08:17.601Z,63.18
2023-04-05T10:09:49.740Z,61.72
2023-04-05T10:11:22.587Z,62.58
2023-04-05T10:12:54.917Z,62.88
2023-04-05T10:14:27.368Z,63.46
2023-04-05T10:16:04.101Z,62.82
2023-04-05T10:18:01.266Z,63.84
2023-04-05T10:20:09.909Z,61.85
2023-04-05T10:21:43.773Z,61.56
2023-04-05T10:23:23.737Z,60.63
2023-04-05T10:25:03.852Z,60.69
2023-04-05T10:26:58.132Z,60.14
2023-04-05T10:28:38.254Z,61.64
2023-04-05T10:30:10.674Z,61.96
2023-04-05T10:31:59.357Z,62.48
2023-04-05T10:33:39.983Z,62.45
2023-04-05T10:35:18.223Z,61.30
2023-04-05T10:36:56.325Z,62.54
2023-04-05T10:38:30.321Z,61.03
2023-04-05T10:40:04.873Z,60.35
2023-04-05T10:41:48.210Z,61.23
2023-04-05T10:43:24.125Z,61.40
2023-04-05T10:45:05.026Z,61.93
2023-04-05T10:46:38.186Z,60.96
2023-04-05T10:48:33.337Z,60.19
2023-04-05T10:50:09.374Z,61.51
2023-04-05T10:51:44.279Z,61.11
2023-04-05T10:53:17.133Z,60.98
2023-04-05T10:54:49.809Z,61.69
2023-04-05T10:56:22.497Z,62.17
2023-04-05T10:57:55.269Z,62.11
2023-04-05T10:59:28.460Z,61.86
2023-04-05T11:01:01.234Z,62.28
2023-04-05T11:02:33.875Z,62.50
2023-04-05T11:04:13.649Z,63.22
2023-04-05T11:05:45.855Z,62.93
2023-04-05T11:07:19.773Z,62.54
2023-04-05T11:08:56.334Z,62.47
2023-04-05T11:10:28.751Z,62.64
2023-04-05T11:12:01.451Z,62.93
2023-04-05T11:13:58.970Z,62.91
2023-04-05T11:15:35.138Z,62.05
2023-04-05T11:17:25.121Z,62.95
2023-04-05T11:18:57.280Z,64.90
2023-04-05T11:20:43.922Z,63.74
2023-04-05T11:22:27.005Z,62.76
2023-04-05T11:24:07.652Z,62.58
2023-04-05T11:25:41.017Z,62.79
2023-04-05T11:27:13.321Z,62.58
2023-04-05T11:28:45.490Z,62.99
2023-04-05T11:30:46.858Z,62.29
2023-04-05T11:32:19.002Z,62.21
2023-04-05T11:33:56.258Z,61.44
2023-04-05T11:35:35.559Z,61.95
2023-04-05T11:37:07.801Z,62.05
2023-04-05T11:38:43.136Z,62.36
2023-04-05T11:42:12.465Z,62.24
2023-04-05T11:43:45.527Z,60.99
2023-04-05T11:45:19.876Z,61.61
2023-04-05T11:46:53.550Z,61.95
2023-04-05T11:48:26.834Z,61.69
2023-04-05T11:49:59.837Z,60.89
2023-04-05T11:51:32.637Z,63.47
2023-04-05T11:53:19.983Z,62.88
2023-04-05T11:54:52.853Z,64.58
2023-04-05T11:56:25.127Z,63.33
2023-04-05T11:57:57.505Z,65.83
2023-04-05T11:59:31.123Z,63.08
2023-04-05T12:01:10.166Z,63.33
2023-04-05T12:02:45.181Z,66.03
2023-04-05T12:04:18.593Z,64.92
2023-04-05T12:05:52.307Z,64.42
2023-04-05T12:07:29.338Z,64.30
2023-04-05T12:09:01.548Z,64.80
2023-04-05T12:10:33.829Z,64.62
2023-04-05T12:12:07.106Z,64.53
2023-04-05T12:13:40.010Z,65.24
2023-04-05T12:15:19.362Z,64.43
2023-04-05T12:16:51.675Z,63.35
2023-04-05T12:18:26.190Z,63.65
2023-04-05T12:19:58.362Z,64.12
2023-04-05T12:21:31.063Z,63.54
2023-04-05T12:23:04.102Z,63.89
2023-04-05T12:24:36.548Z,62.86
2023-04-05T12:26:09.038Z,62.71
2023-04-05T12:27:41.519Z,61.43
2023-04-05T12:29:13.570Z,61.27
2023-04-05T12:30:49.740Z,61.57
2023-04-05T12:32:22.829Z,61.38
2023-04-05T12:33:59.894Z,61.52
2023-04-05T12:35:35.514Z,60.96
2023-04-05T12:37:07.723Z,61.44
2023-04-05T12:38:40.835Z,61.74
2023-04-05T12:40:13.888Z,61.54
2023-04-05T12:41:46.621Z,61.19
2023-04-05T12:43:20.482Z,61.30
2023-04-05T12:45:04.449Z,61.04
2023-04-05T12:46:43.722Z,59.80
2023-04-05T12:48:22.473Z,60.37
2023-04-05T12:49:55.900Z,60.49
2023-04-05T12:51:27.869Z,60.84
2023-04-05T12:53:01.736Z,60.64
2023-04-05T12:54:34.414Z,60.27
2023-04-05T12:56:07.625Z,60.49
2023-04-05T12:57:39.938Z,60.58
2023-04-05T12:59:12.131Z,60.63
2023-04-05T13:00:45.665Z,60.63
2023-04-05T13:02:17.650Z,60.14
2023-04-05T13:03:53.302Z,60.80
2023-04-05T13:05:31.082Z,61.15
2023-04-05T13:07:03.364Z,60.74
2023-04-05T13:08:35.749Z,60.52
2023-04-05T13:10:08.832Z,60.02
2023-04-05T13:11:41.211Z,60.31
2023-04-05T13:13:17.540Z,60.11
2023-04-05T13:14:49.686Z,59.78
2023-04-05T13:16:22.143Z,59.45
2023-04-05T13:17:55.362Z,58.98
2023-04-05T13:19:27.612Z,58.77
2023-04-05T13:20:59.847Z,59.14
2023-04-05T13:22:32.065Z,59.37
2023-04-05T13:24:04.297Z,59.49
2023-04-05T13:25:36.493Z,59.53
2023-04-05T13:27:08.666Z,59.70
2023-04-05T13:28:40.894Z,59.69
2023-04-05T13:30:13.292Z,59.69
2023-04-05T13:31:45.437Z,59.22
2023-04-05T13:33:18.657Z,60.06
2023-04-05T13:34:50.844Z,59.66
2023-04-05T13:36:22.995Z,59.43
2023-04-05T13:37:55.144Z,59.41
2023-04-05T13:39:27.262Z,60.16
2023-04-05T13:40:59.385Z,60.40
2023-04-05T13:42:31.551Z,60.19
2023-04-05T13:44:05.927Z,60.13
2023-04-05T13:45:39.904Z,60.04
2023-04-05T13:47:12.195Z,59.90
2023-04-05T13:48:44.334Z,60.67
2023-04-05T13:50:16.706Z,61.60
2023-04-05T13:51:48.829Z,61.28
2023-04-05T13:53:20.944Z,60.07
2023-04-05T13:55:02.124Z,60.84
2023-04-05T13:56:35.969Z,60.90
2023-04-05T13:58:08.142Z,60.34
2023-04-05T13:59:40.509Z,60.38
2023-04-05T14:01:12.890Z,59.96
2023-04-05T14:02:45.596Z,59.69
2023-04-05T14:04:18.241Z,59.93
2023-04-05T14:05:51.725Z,59.65
2023-04-05T14:07:25.348Z,59.13
2023-04-05T14:08:57.491Z,59.77
2023-04-05T14:10:31.277Z,59.04
2023-04-05T14:12:04.406Z,59.03
2023-04-05T14:13:36.522Z,60.28
2023-04-05T14:15:09.075Z,59.80
2023-04-05T14:16:41.276Z,59.84
2023-04-05T14:18:13.720Z,60.28
2023-04-05T14:19:45.930Z,60.70
2023-04-05T14:21:18.023Z,61.16
2023-04-05T14:22:50.221Z,61.83
2023-04-05T14:24:22.473Z,62.40
2023-04-05T14:25:54.612Z,61.77
2023-04-05T14:27:28.892Z,60.62
2023-04-05T14:29:01.264Z,60.96
2023-04-05T14:30:33.450Z,61.57
2023-04-05T14:32:05.976Z,62.06
2023-04-05T14:33:38.170Z,62.30
2023-04-05T14:35:10.622Z,62.33
2023-04-05T14:36:42.819Z,62.57
2023-04-05T14:38:15.166Z,62.68
2023-04-05T14:39:47.499Z,62.83
2023-04-05T14:41:19.859Z,63.00
2023-04-05T14:42:52.047Z,62.81
2023-04-05T14:44:24.810Z,61.90
2023-04-05T14:45:56.974Z,60.65
2023-04-05T14:47:29.211Z,60.95
2023-04-05T14:49:01.703Z,61.26
2023-04-05T14:50:33.892Z,61.59
2023-04-05T14:52:06.192Z,61.59
2023-04-05T14:53:38.312Z,61.53
2023-04-05T14:55:10.532Z,61.04
2023-04-05T14:56:42.668Z,60.98
2023-04-05T14:58:14.806Z,61.30
2023-04-05T14:59:46.894Z,60.88
2023-04-05T15:01:19.192Z,61.02
2023-04-05T15:02:51.474Z,61.48
2023-04-05T15:04:23.849Z,61.50
2023-04-05T15:05:55.938Z,61.89
2023-04-05T15:09:04.091Z,62.30
2023-04-05T15:10:38.464Z,62.17
2023-04-05T15:12:10.646Z,62.20
2023-04-05T15:13:42.758Z,62.29
2023-04-05T15:15:14.892Z,62.12
2023-04-05T15:16:47.076Z,62.56
2023-04-05T15:18:19.393Z,62.69
2023-04-05T15:19:51.512Z,62.89
2023-04-05T15:21:23.639Z,63.16
2023-04-05T15:22:56.305Z,62.71
2023-04-05T15:24:28.389Z,63.07
2023-04-05T15:26:00.502Z,63.61
2023-04-05T15:27:32.681Z,63.77
2023-04-05T15:29:04.854Z,64.07
2023-04-05T15:30:37.173Z,63.01
2023-04-05T15:32:09.304Z,62.93
2023-04-05T15:33:41.415Z,62.84
2023-04-05T15:35:13.568Z,62.81
2023-04-05T15:36:46.023Z,63.23
2023-04-05T15:38:18.107Z,63.38
2023-04-05T15:39:50.617Z,63.51
2023-04-05T15:41:22.780Z,63.41
2023-04-05T15:42:55.756Z,63.43
2023-04-05T15:44:27.968Z,63.16
2023-04-05T15:46:00.181Z,63.46
2023-04-05T15:47:32.434Z,63.74
2023-04-05T15:49:04.913Z,63.36
2023-04-05T15:50:37.119Z,63.93
2023-04-05T15:52:10.433Z,64.12
2023-04-05T15:53:42.629Z,63.50
2023-04-05T15:55:14.814Z,63.21
2023-04-05T15:56:47.200Z,63.36
2023-04-05T15:58:19.401Z,63.29
2023-04-05T15:59:53.207Z,62.70
2023-04-05T16:01:25.462Z,62.12
2023-04-05T16:03:00.737Z,62.57
2023-04-05T16:04:33.229Z,62.87
2023-04-05T16:06:05.903Z,61.96
2023-04-05T16:07:38.084Z,62.01
2023-04-05T16:09:10.287Z,61.17
2023-04-05T16:10:43.248Z,61.42
2023-04-05T16:12:15.796Z,61.03
2023-04-05T16:13:48.074Z,60.86
2023-04-05T16:15:20.313Z,60.76
2023-04-05T16:16:54.449Z,61.11
2023-04-05T16:18:28.471Z,60.77
2023-04-05T16:20:00.604Z,60.83
2023-04-05T16:21:33.133Z,60.65
2023-04-05T16:24:38.830Z,60.74
2023-04-05T16:26:11.046Z,60.40
2023-04-05T16:27:43.237Z,60.84
2023-04-05T16:29:15.348Z,60.10
2023-04-05T16:30:48.308Z,59.73
2023-04-05T16:32:20.525Z,59.94
2023-04-05T16:33:54.435Z,59.79
2023-04-05T16:35:29.381Z,60.14
2023-04-05T16:37:01.641Z,59.76
2023-04-05T16:38:33.827Z,59.79
2023-04-05T16:40:08.065Z,60.27
2023-04-05T16:41:40.166Z,60.42
2023-04-05T16:43:12.277Z,61.10
2023-04-05T16:44:44.477Z,61.13
2023-04-05T16:46:16.725Z,60.91
2023-04-05T16:47:48.933Z,61.34
2023-04-05T16:49:21.188Z,61.57
2023-04-05T16:50:53.341Z,63.42
2023-04-05T16:53:58.411Z,63.23
2023-04-05T16:55:30.798Z,62.58
2023-04-05T16:57:03.201Z,61.42
2023-04-05T16:58:35.364Z,61.19
2023-04-05T17:00:08.398Z,61.27
2023-04-05T17:01:40.795Z,61.17
2023-04-05T17:03:13.228Z,61.37
2023-04-05T17:04:46.744Z,61.77
2023-04-05T17:06:19.038Z,63.05
2023-04-05T17:07:51.120Z,62.35
2023-04-05T17:09:23.573Z,62.45
2023-04-05T17:10:55.701Z,61.99
2023-04-05T17:12:27.817Z,62.26
2023-04-05T17:14:00.028Z,61.54
2023-04-05T17:15:32.216Z,61.14
2023-04-05T17:17:04.401Z,61.44
2023-04-05T17:18:40.060Z,62.04
2023-04-05T17:20:12.575Z,61.78
2023-04-05T17:21:50.599Z,60.94
2023-04-05T17:23:22.850Z,61.30
2023-04-05T17:24:54.984Z,60.53
2023-04-05T17:26:27.539Z,60.87
2023-04-05T17:27:59.822Z,61.14
2023-04-05T17:29:32.022Z,61.75
2023-04-05T17:31:04.619Z,61.51
2023-04-05T17:32:36.871Z,62.46
2023-04-05T17:34:13.494Z,63.76
2023-04-05T17:35:45.623Z,62.95
2023-04-05T17:37:17.787Z,62.72
2023-04-05T17:38:49.865Z,62.71
2023-04-05T17:40:22.172Z,63.92
2023-04-05T17:41:57.020Z,62.52
2023-04-05T17:43:29.283Z,62.09
2023-04-05T17:45:01.853Z,62.90
2023-04-05T17:46:42.834Z,64.74
2023-04-05T17:48:15.378Z,63.31
2023-04-05T17:49:47.607Z,63.21
2023-04-05T17:51:21.118Z,63.66
2023-04-05T17:52:53.384Z,63.62
2023-04-05T17:54:25.948Z,63.64
2023-04-05T17:55:58.118Z,63.92
2023-04-05T17:57:30.396Z,65.07
2023-04-05T17:59:03.257Z,64.42
2023-04-05T18:00:35.704Z,64.97
2023-04-05T18:02:08.145Z,65.63
2023-04-05T18:03:41.093Z,65.37
2023-04-05T18:05:13.602Z,66.21
2023-04-05T18:06:45.776Z,66.25
2023-04-05T18:08:17.932Z,66.55
2023-04-05T18:09:50.136Z,66.15
2023-04-05T18:11:22.299Z,66.39
2023-04-05T18:12:54.416Z,66.11
2023-04-05T18:14:26.684Z,66.81
2023-04-05T18:16:00.263Z,65.88
2023-04-05T18:17:32.869Z,66.92
2023-04-05T18:19:05.230Z,67.85
2023-04-05T18:20:37.851Z,68.14
2023-04-05T18:22:10.033Z,67.73
2023-04-05T18:23:42.361Z,67.93
2023-04-05T18:25:15.997Z,66.85
2023-04-05T18:26:48.192Z,66.34
2023-04-05T18:28:23.199Z,66.51
2023-04-05T18:29:55.725Z,66.01
2023-04-05T18:31:29.424Z,66.88
2023-04-05T18:33:01.603Z,66.83
2023-04-05T18:34:34.966Z,66.25
2023-04-05T18:36:08.393Z,66.42
2023-04-05T18:37:40.450Z,66.60
2023-04-05T18:39:12.680Z,65.76
2023-04-05T18:40:44.927Z,65.39
2023-04-05T18:42:17.155Z,65.18
2023-04-05T18:43:52.518Z,65.34
2023-04-05T18:45:24.721Z,66.20
2023-04-05T18:46:57.565Z,65.87
2023-04-05T18:48:29.690Z,65.39
2023-04-05T18:50:02.596Z,64.94
2023-04-05T18:51:34.793Z,64.13
2023-04-05T18:53:07.436Z,63.72
2023-04-05T18:54:39.978Z,63.91
2023-04-05T18:56:12.216Z,64.26
2023-04-05T18:57:44.296Z,64.46
2023-04-05T18:59:17.789Z,63.87
2023-04-05T19:00:50.002Z,64.14
2023-04-05T19:02:22.431Z,64.01
2023-04-05T19:03:54.742Z,64.51
2023-04-05T19:05:26.993Z,64.00
2023-04-05T19:06:59.254Z,64.33
2023-04-05T19:08:31.325Z,64.54
2023-04-05T19:10:03.614Z,64.48
2023-04-05T19:11:35.755Z,64.97
2023-04-05T19:13:08.009Z,64.03
2023-04-05T19:14:42.796Z,64.71
2023-04-05T19:16:17.771Z,64.55
2023-04-05T19:17:49.983Z,63.81
2023-04-05T19:19:22.219Z,64.18
2023-04-05T19:20:55.535Z,64.06
2023-04-05T19:22:27.797Z,64.53
2023-04-05T19:23:59.942Z,63.92
2023-04-05T19:25:32.133Z,64.37
2023-04-05T19:27:04.375Z,64.72
2023-04-05T19:28:36.666Z,65.37
2023-04-05T19:30:09.538Z,65.64
2023-04-05T19:31:42.016Z,65.27
2023-04-05T19:33:14.678Z,64.79
2023-04-05T19:34:46.815Z,63.83
2023-04-05T19:36:19.022Z,64.14
2023-04-05T19:37:51.423Z,66.01
2023-04-05T19:39:25.818Z,66.31
2023-04-05T19:40:58.669Z,66.36
2023-04-05T19:42:32.030Z,67.20
2023-04-05T19:44:12.766Z,66.78
2023-04-05T19:45:45.049Z,67.57
2023-04-05T19:47:20.198Z,67.89
2023-04-05T19:48:52.382Z,67.64
2023-04-05T19:50:48.352Z,68.07
2023-04-05T19:52:41.025Z,67.83
2023-04-05T19:54:15.093Z,67.49
2023-04-05T19:55:47.485Z,67.50
2023-04-05T19:57:20.417Z,68.66
2023-04-05T19:59:18.156Z,68.69
2023-04-05T20:00:54.160Z,68.39
2023-04-05T20:02:39.143Z,69.29
2023-04-05T20:04:20.020Z,69.43
2023-04-05T20:06:17.328Z,69.53
2023-04-05T20:07:49.475Z,69.59
2023-04-05T20:09:27.076Z,69.13
2023-04-05T20:10:59.206Z,69.50
2023-04-05T20:12:31.428Z,70.79
2023-04-05T20:14:05.926Z,70.79
2023-04-05T20:15:39.453Z,70.23
2023-04-05T20:17:12.833Z,70.48
2023-04-05T20:20:17.309Z,70.24
2023-04-05T20:21:49.495Z,69.92
2023-04-05T20:23:23.018Z,69.55